Time;durP1;ratioP1;P1;durP2;ratioP2;P2;SDS_P1;SDS_P2;PMS_P1;PMS_P2;Temp;Humidity;BMP_temperature;BMP_pressure;BME280_temperature;BME280_humidity;BME280_pressure;Samples;Min_cycle;Max_cycle;Signal;HPM_P1;HPM_P2
2022/04/14 00:04:35;;;;;;;;;8.00;8.00;;;;;;;;2;261076401;261076401;-80
2022/04/14 00:12:50;;;;;;;;;11.50;7.50;;;;;;;;2;261076596;261076596;-80
2022/04/14 00:21:50;;;;;;;;;12.00;9.00;;;;;;;;2;261077466;261077466;-78
2022/04/14 00:30:06;;;;;;;;;3.50;3.50;;;;;;;;2;261073535;261073535;-78
2022/04/14 00:39:09;;;;;;;;;5.00;5.00;;;;;;;;2;261078662;261078662;-78
2022/04/14 00:47:24;;;;;;;;;6.50;6.50;;;;;;;;2;261076866;261076866;-78
2022/04/14 00:56:25;;;;;;;;;4.50;4.50;;;;;;;;2;261077763;261077763;-78
2022/04/14 01:04:40;;;;;;;;;5.50;5.50;;;;;;;;2;261075942;261075942;-80
2022/04/14 01:13:41;;;;;;;;;6.50;6.50;;;;;;;;2;261075326;261075326;-80
2022/04/14 01:25:15;;;;;;;;;8.00;8.00;;;;;;;;2;261075704;261075704;-80
2022/04/14 01:34:16;;;;;;;;;8.50;8.50;;;;;;;;2;261077645;261077645;-80
2022/04/14 01:42:32;;;;;;;;;3.50;3.50;;;;;;;;2;261075843;261075843;-80
2022/04/14 01:51:32;;;;;;;;;20.50;5.50;;;;;;;;2;261079880;261079880;-80
2022/04/14 01:59:47;;;;;;;;;21.50;10.50;;;;;;;;2;261076539;261076539;-80
2022/04/14 02:08:48;;;;;;;;;8.00;8.00;;;;;;;;2;261076577;261076577;-80
2022/04/14 02:17:03;;;;;;;;;15.00;10.00;;;;;;;;2;261075341;261075341;-78
2022/04/14 02:26:04;;;;;;;;;5.50;5.50;;;;;;;;2;261077287;261077287;-78
2022/04/14 02:34:19;;;;;;;;;15.50;15.50;;;;;;;;2;261080224;261080224;-79
2022/04/14 02:43:21;;;;;;;;;17.00;12.00;;;;;;;;2;261074936;261074936;-79
2022/04/14 02:51:36;;;;;;;;;6.50;6.50;;;;;;;;2;261078042;261078042;-79
2022/04/14 03:00:37;;;;;;;;;13.00;13.00;;;;;;;;2;261077798;261077798;-79
2022/04/14 03:08:52;;;;;;;;;9.00;9.00;;;;;;;;2;261075677;261075677;-79
2022/04/14 03:17:53;;;;;;;;;10.50;10.50;;;;;;;;2;261077611;261077611;-79
2022/04/14 03:26:09;;;;;;;;;11.50;11.50;;;;;;;;2;261076870;261076870;-79
2022/04/14 03:35:10;;;;;;;;;12.50;9.50;;;;;;;;2;261077239;261077239;-80
2022/04/14 03:43:26;;;;;;;;;21.00;10.00;;;;;;;;2;261078595;261078595;-80
2022/04/14 03:52:26;;;;;;;;;10.00;10.00;;;;;;;;2;261078075;261078075;-80
2022/04/14 04:00:48;;;;;;;;;15.00;15.00;;;;;;;;2;261075690;261075690;-80
2022/04/14 04:09:48;;;;;;;;;15.50;15.50;;;;;;;;2;261078889;261078889;-80
2022/04/14 04:18:05;;;;;;;;;15.50;15.50;;;;;;;;2;261076495;261076495;-80
2022/04/14 04:27:06;;;;;;;;;17.50;17.50;;;;;;;;2;261077230;261077230;-80
2022/04/14 04:35:22;;;;;;;;;21.00;21.00;;;;;;;;2;261078583;261078583;-79
2022/04/14 04:44:22;;;;;;;;;21.00;21.00;;;;;;;;2;261073988;261073988;-80
2022/04/14 04:52:52;;;;;;;;;28.00;16.00;;;;;;;;2;261079094;261079094;-81
2022/04/14 05:02:02;;;;;;;;;17.00;17.00;;;;;;;;2;261075388;261075388;-79
2022/04/14 05:10:18;;;;;;;;;21.50;17.50;;;;;;;;2;261073296;261073296;-79
2022/04/14 05:19:18;;;;;;;;;27.00;24.50;;;;;;;;2;261076865;261076865;-79
2022/04/14 05:27:34;;;;;;;;;17.00;17.00;;;;;;;;2;261080273;261080273;-79
2022/04/14 05:36:34;;;;;;;;;23.00;21.50;;;;;;;;2;261080708;261080708;-79
2022/04/14 05:44:49;;;;;;;;;21.00;17.50;;;;;;;;2;261083551;261083551;-82
2022/04/14 05:53:51;;;;;;;;;17.50;17.50;;;;;;;;2;261077444;261077444;-82
2022/04/14 06:02:07;;;;;;;;;25.50;25.50;;;;;;;;2;261081412;261081412;-82
2022/04/14 06:11:09;;;;;;;;;24.50;21.50;;;;;;;;2;261077633;261077633;-82
2022/04/14 06:19:24;;;;;;;;;32.00;28.50;;;;;;;;2;261080161;261080161;-82
2022/04/14 06:28:24;;;;;;;;;29.50;29.50;;;;;;;;2;261079934;261079934;-82
2022/04/14 06:36:40;;;;;;;;;39.00;30.00;;;;;;;;2;261084054;261084054;-82
2022/04/14 06:45:40;;;;;;;;;25.50;17.50;;;;;;;;2;261075998;261075998;-82
2022/04/14 06:53:56;;;;;;;;;28.00;19.00;;;;;;;;2;261077601;261077601;-81
2022/04/14 07:02:57;;;;;;;;;45.00;32.00;;;;;;;;2;261075160;261075160;-80
2022/04/14 07:11:13;;;;;;;;;27.50;27.50;;;;;;;;2;261077217;261077217;-81
2022/04/14 07:20:13;;;;;;;;;23.00;21.50;;;;;;;;2;261074433;261074433;-81
2022/04/14 07:28:28;;;;;;;;;23.50;23.50;;;;;;;;2;261077104;261077104;-81
2022/04/14 07:37:29;;;;;;;;;22.50;22.50;;;;;;;;2;261077060;261077060;-81
2022/04/14 07:45:45;;;;;;;;;22.00;22.00;;;;;;;;2;260981796;260981796;-81
2022/04/14 07:54:46;;;;;;;;;26.50;26.50;;;;;;;;2;261076498;261076498;-81
2022/04/14 08:03:02;;;;;;;;;23.00;23.00;;;;;;;;2;261081956;261081956;-81
2022/04/14 08:12:02;;;;;;;;;24.00;24.00;;;;;;;;2;261077206;261077206;-81
2022/04/14 08:20:17;;;;;;;;;23.50;23.50;;;;;;;;2;261073251;261073251;-81
2022/04/14 08:29:18;;;;;;;;;28.50;27.50;;;;;;;;2;261076111;261076111;-81
2022/04/14 08:37:33;;;;;;;;;27.00;26.50;;;;;;;;2;261078906;261078906;-82
2022/04/14 08:46:34;;;;;;;;;26.00;21.50;;;;;;;;2;261076915;261076915;-82
2022/04/14 08:54:50;;;;;;;;;35.00;14.00;;;;;;;;2;261074391;261074391;-82
2022/04/14 09:03:55;;;;;;;;;34.00;22.00;;;;;;;;2;261075470;261075470;-82
2022/04/14 09:12:12;;;;;;;;;28.00;16.00;;;;;;;;2;261075046;261075046;-82
2022/04/14 09:21:13;;;;;;;;;11.50;11.50;;;;;;;;2;261076670;261076670;-83
2022/04/14 09:29:29;;;;;;;;;13.50;13.50;;;;;;;;2;261075845;261075845;-83
2022/04/14 09:38:38;;;;;;;;;12.00;12.00;;;;;;;;2;261072678;261072678;-83
2022/04/14 09:46:52;;;;;;;;;12.50;12.50;;;;;;;;2;261078913;261078913;-83
2022/04/14 09:55:51;;;;;;;;;22.50;11.50;;;;;;;;2;259894842;259894842;-83
2022/04/14 10:04:10;;;;;;;;;13.00;13.00;;;;;;;;2;261077523;261077523;-83
2022/04/14 10:13:12;;;;;;;;;16.00;16.00;;;;;;;;2;261078929;261078929;-83
2022/04/14 10:21:26;;;;;;;;;18.50;18.50;;;;;;;;2;260795349;260795349;-83
2022/04/14 10:30:26;;;;;;;;;10.50;10.50;;;;;;;;2;260097800;260097800;-83
2022/04/14 10:38:44;;;;;;;;;9.00;5.00;;;;;;;;2;261074004;261074004;-83
2022/04/14 10:47:50;;;;;;;;;8.50;8.50;;;;;;;;2;261076154;261076154;-83
2022/04/14 10:56:06;;;;;;;;;10.00;10.00;;;;;;;;2;261075196;261075196;-83
2022/04/14 11:05:06;;;;;;;;;5.50;5.50;;;;;;;;2;260865170;260865170;-83
2022/04/14 11:13:21;;;;;;;;;5.50;5.50;;;;;;;;2;261076258;261076258;-83
2022/04/14 11:22:22;;;;;;;;;4.50;4.50;;;;;;;;2;261077660;261077660;-84
2022/04/14 11:30:40;;;;;;;;;3.00;3.00;;;;;;;;2;260423243;260423243;-82
2022/04/14 11:39:39;;;;;;;;;8.50;8.50;;;;;;;;2;259634526;259634526;-82
2022/04/14 11:47:59;;;;;;;;;14.00;9.00;;;;;;;;2;259771882;259771882;-81
2022/04/14 11:57:07;;;;;;;;;12.50;12.50;;;;;;;;2;259672962;259672962;-81
2022/04/14 12:05:22;;;;;;;;;6.00;6.00;;;;;;;;2;261076773;261076773;-82
2022/04/14 12:14:23;;;;;;;;;5.00;5.00;;;;;;;;2;261085321;261085321;-82
2022/04/14 12:22:37;;;;;;;;;4.00;4.00;;;;;;;;2;261083939;261083939;-82
2022/04/14 12:31:37;;;;;;;;;5.50;5.50;;;;;;;;2;261090708;261090708;-82
2022/04/14 12:40:11;;;;;;;;;5.00;1.00;;;;;;;;2;261006418;261006418;-81
2022/04/14 12:49:13;;;;;;;;;4.00;4.00;;;;;;;;2;261076951;261076951;-82
2022/04/14 12:57:30;;;;;;;;;2.00;2.00;;;;;;;;2;261076431;261076431;-82
2022/04/14 13:06:31;;;;;;;;;2.50;2.50;;;;;;;;2;261078402;261078402;-82
2022/04/14 13:14:45;;;;;;;;;13.50;1.50;;;;;;;;2;260910616;260910616;-82
2022/04/14 13:23:44;;;;;;;;;12.00;4.00;;;;;;;;2;261079008;261079008;-82
2022/04/14 13:31:55;;;;;;;;;4.00;4.00;;;;;;;;2;256718680;256718680;-81
2022/04/14 13:40:55;;;;;;;;;6.50;5.00;;;;;;;;2;261088173;261088173;-82
2022/04/14 13:49:11;;;;;;;;;2.50;2.50;;;;;;;;2;261075046;261075046;-82
2022/04/14 13:58:11;;;;;;;;;6.00;2.00;;;;;;;;2;261075025;261075025;-81
2022/04/14 14:06:27;;;;;;;;;1.00;1.00;;;;;;;;2;261078225;261078225;-81
2022/04/14 14:15:27;;;;;;;;;5.00;5.00;;;;;;;;2;261079048;261079048;-81
2022/04/14 14:23:43;;;;;;;;;2.00;2.00;;;;;;;;2;261076573;261076573;-81
2022/04/14 14:32:43;;;;;;;;;4.00;4.00;;;;;;;;2;261075945;261075945;-82
2022/04/14 14:41:02;;;;;;;;;3.00;3.00;;;;;;;;2;261076827;261076827;-81
2022/04/14 14:50:03;;;;;;;;;10.50;1.50;;;;;;;;2;261056646;261056646;-81
2022/04/14 15:07:37;;;;;;;;;1.50;1.50;;;;;;;;2;261078732;261078732;-78
2022/04/14 15:15:56;;;;;;;;;1.00;1.00;;;;;;;;2;261075869;261075869;-78
2022/04/14 15:24:56;;;;;;;;;1.00;1.00;;;;;;;;2;261077091;261077091;-78
2022/04/14 15:33:12;;;;;;;;;0.50;0.50;;;;;;;;2;261077249;261077249;-78
2022/04/14 15:42:12;;;;;;;;;0.50;0.50;;;;;;;;2;261075974;261075974;-78
2022/04/14 15:50:27;;;;;;;;;0.00;0.00;;;;;;;;2;261077712;261077712;-78
2022/04/14 15:59:28;;;;;;;;;1.50;1.50;;;;;;;;2;261078917;261078917;-78
2022/04/14 16:07:47;;;;;;;;;2.50;2.50;;;;;;;;2;261076029;261076029;-78
2022/04/14 16:16:50;;;;;;;;;1.50;1.50;;;;;;;;2;261076483;261076483;-79
2022/04/14 16:25:06;;;;;;;;;13.00;1.50;;;;;;;;2;261074567;261074567;-78
2022/04/14 16:34:06;;;;;;;;;4.50;4.50;;;;;;;;2;261076000;261076000;-78
2022/04/14 16:42:22;;;;;;;;;1.00;1.00;;;;;;;;2;261079923;261079923;-78
2022/04/14 16:51:22;;;;;;;;;2.00;2.00;;;;;;;;2;261076797;261076797;-78
2022/04/14 16:59:38;;;;;;;;;1.00;1.00;;;;;;;;2;261079382;261079382;-79
2022/04/14 17:08:38;;;;;;;;;1.00;1.00;;;;;;;;2;261079235;261079235;-79
2022/04/14 17:16:54;;;;;;;;;1.50;1.50;;;;;;;;2;261077972;261077972;-79
2022/04/14 17:25:54;;;;;;;;;1.00;1.00;;;;;;;;2;261080798;261080798;-79
2022/04/14 17:34:10;;;;;;;;;1.00;1.00;;;;;;;;2;261077929;261077929;-79
2022/04/14 17:43:10;;;;;;;;;2.00;2.00;;;;;;;;2;261075238;261075238;-79
2022/04/14 17:51:26;;;;;;;;;1.00;1.00;;;;;;;;2;261075565;261075565;-78
2022/04/14 18:00:28;;;;;;;;;1.00;1.00;;;;;;;;2;261079212;261079212;-80
2022/04/14 18:08:44;;;;;;;;;2.50;2.50;;;;;;;;2;261081603;261081603;-79
2022/04/14 18:17:44;;;;;;;;;3.00;3.00;;;;;;;;2;261080830;261080830;-79
2022/04/14 18:26:00;;;;;;;;;2.00;2.00;;;;;;;;2;261075270;261075270;-79
2022/04/14 18:34:59;;;;;;;;;5.50;2.00;;;;;;;;2;259906263;259906263;-78
2022/04/14 18:43:14;;;;;;;;;3.50;3.50;;;;;;;;2;261005499;261005499;-78
2022/04/14 18:52:15;;;;;;;;;3.50;3.50;;;;;;;;2;261046016;261046016;-78
2022/04/14 19:00:30;;;;;;;;;2.50;2.50;;;;;;;;2;261077309;261077309;-78
2022/04/14 19:09:31;;;;;;;;;14.00;2.00;;;;;;;;2;260952264;260952264;-78
2022/04/14 19:17:46;;;;;;;;;3.50;3.50;;;;;;;;2;260816932;260816932;-78
2022/04/14 19:26:46;;;;;;;;;6.00;6.00;;;;;;;;2;261077720;261077720;-76
2022/04/14 19:35:04;;;;;;;;;12.00;10.00;;;;;;;;2;261084725;261084725;-77
2022/04/14 19:44:04;;;;;;;;;8.00;4.00;;;;;;;;2;261080409;261080409;-78
2022/04/14 19:52:20;;;;;;;;;11.50;6.00;;;;;;;;2;261078549;261078549;-76
2022/04/14 20:01:20;;;;;;;;;7.50;7.50;;;;;;;;2;260618786;260618786;-78
2022/04/14 20:09:35;;;;;;;;;9.50;9.50;;;;;;;;2;261071519;261071519;-75
2022/04/14 20:18:36;;;;;;;;;5.00;5.00;;;;;;;;2;261082975;261082975;-77
2022/04/14 20:26:51;;;;;;;;;2.50;2.50;;;;;;;;2;261078305;261078305;-77
2022/04/14 20:35:51;;;;;;;;;2.50;2.50;;;;;;;;2;261074592;261074592;-77
2022/04/14 20:44:07;;;;;;;;;2.00;2.00;;;;;;;;2;261074863;261074863;-79
2022/04/14 20:53:07;;;;;;;;;5.50;5.50;;;;;;;;2;261081214;261081214;-79
2022/04/14 21:01:23;;;;;;;;;5.50;5.50;;;;;;;;2;261077461;261077461;-80
2022/04/14 21:10:23;;;;;;;;;10.50;10.50;;;;;;;;2;261082565;261082565;-79
2022/04/14 21:18:39;;;;;;;;;5.00;5.00;;;;;;;;2;261079346;261079346;-79
2022/04/14 21:27:39;;;;;;;;;6.00;6.00;;;;;;;;2;261075808;261075808;-79
2022/04/14 21:35:54;;;;;;;;;6.00;6.00;;;;;;;;2;261077936;261077936;-79
2022/04/14 21:44:54;;;;;;;;;6.00;2.00;;;;;;;;2;260494118;260494118;-79
2022/04/14 21:53:10;;;;;;;;;5.00;5.00;;;;;;;;2;260341724;260341724;-79
2022/04/14 22:02:10;;;;;;;;;2.50;2.50;;;;;;;;2;260419573;260419573;-79
2022/04/14 22:10:24;;;;;;;;;3.00;3.00;;;;;;;;2;260799927;260799927;-79
2022/04/14 22:19:23;;;;;;;;;6.50;6.50;;;;;;;;2;260753189;260753189;-79
2022/04/14 22:27:38;;;;;;;;;6.00;6.00;;;;;;;;2;261077822;261077822;-79
2022/04/14 22:36:38;;;;;;;;;8.00;8.00;;;;;;;;2;260305490;260305490;-80
2022/04/14 22:44:53;;;;;;;;;5.00;5.00;;;;;;;;2;261076903;261076903;-80
2022/04/14 22:53:54;;;;;;;;;4.50;4.50;;;;;;;;2;261079564;261079564;-80
2022/04/14 23:02:09;;;;;;;;;5.50;5.50;;;;;;;;2;261078775;261078775;-80
2022/04/14 23:11:10;;;;;;;;;7.00;7.00;;;;;;;;2;261076800;261076800;-80
2022/04/14 23:19:27;;;;;;;;;6.00;6.00;;;;;;;;2;261078780;261078780;-79
2022/04/14 23:28:28;;;;;;;;;5.50;5.50;;;;;;;;2;261077189;261077189;-80
2022/04/14 23:36:44;;;;;;;;;4.50;4.50;;;;;;;;2;261075678;261075678;-80
2022/04/14 23:45:43;;;;;;;;;5.50;5.50;;;;;;;;2;261075510;261075510;-80
2022/04/14 23:53:57;;;;;;;;;6.50;6.50;;;;;;;;2;260272832;260272832;-80
